sensor_id;sensor_type;location;lat;lon;timestamp;pressure;altitude;pressure_sealevel;temperature;humidity
63554;BME280;49699;48.072;7.800;2022-07-30T00:01:56;99556.84;;;19.25;59.15
63554;BME280;49699;48.072;7.800;2022-07-30T00:04:21;99553.63;;;19.21;59.27
63554;BME280;49699;48.072;7.800;2022-07-30T00:06:46;99559.91;;;19.11;59.77
63554;BME280;49699;48.072;7.800;2022-07-30T00:09:12;99561.44;;;19.03;59.98
63554;BME280;49699;48.072;7.800;2022-07-30T00:11:37;99557.69;;;18.96;60.12
63554;BME280;49699;48.072;7.800;2022-07-30T00:14:03;99563.38;;;18.92;60.26
63554;BME280;49699;48.072;7.800;2022-07-30T00:16:28;99555.47;;;18.92;60.39
63554;BME280;49699;48.072;7.800;2022-07-30T00:18:53;99552.69;;;18.93;60.50
63554;BME280;49699;48.072;7.800;2022-07-30T00:21:19;99561.72;;;18.91;60.80
63554;BME280;49699;48.072;7.800;2022-07-30T00:23:44;99546.28;;;18.86;60.82
63554;BME280;49699;48.072;7.800;2022-07-30T00:26:10;99551.56;;;18.86;60.88
63554;BME280;49699;48.072;7.800;2022-07-30T00:28:35;99557.25;;;18.82;61.07
63554;BME280;49699;48.072;7.800;2022-07-30T00:31:00;99544.22;;;18.80;61.18
63554;BME280;49699;48.072;7.800;2022-07-30T00:33:26;99549.63;;;18.79;61.06
63554;BME280;49699;48.072;7.800;2022-07-30T00:35:52;99549.63;;;18.79;61.13
63554;BME280;49699;48.072;7.800;2022-07-30T00:38:17;99549.34;;;18.82;61.06
63554;BME280;49699;48.072;7.800;2022-07-30T00:40:45;99550.16;;;18.82;60.93
63554;BME280;49699;48.072;7.800;2022-07-30T00:43:15;99554.59;;;18.82;61.07
63554;BME280;49699;48.072;7.800;2022-07-30T00:45:42;99558.06;;;18.82;61.04
63554;BME280;49699;48.072;7.800;2022-07-30T00:48:07;99564.50;;;18.80;61.19
63554;BME280;49699;48.072;7.800;2022-07-30T00:50:32;99555.59;;;18.71;61.47
63554;BME280;49699;48.072;7.800;2022-07-30T00:52:58;99554.97;;;18.58;61.82
63554;BME280;49699;48.072;7.800;2022-07-30T00:55:24;99563.69;;;18.49;62.30
63554;BME280;49699;48.072;7.800;2022-07-30T00:57:49;99558.28;;;18.41;62.62
63554;BME280;49699;48.072;7.800;2022-07-30T01:00:15;99562.28;;;18.35;62.85
63554;BME280;49699;48.072;7.800;2022-07-30T01:02:41;99561.28;;;18.26;63.08
63554;BME280;49699;48.072;7.800;2022-07-30T01:05:07;99562.34;;;18.14;63.45
63554;BME280;49699;48.072;7.800;2022-07-30T01:07:33;99571.44;;;18.00;63.80
63554;BME280;49699;48.072;7.800;2022-07-30T01:09:58;99569.16;;;17.86;64.25
63554;BME280;49699;48.072;7.800;2022-07-30T01:12:25;99569.63;;;17.71;64.65
63554;BME280;49699;48.072;7.800;2022-07-30T01:14:51;99569.31;;;17.64;64.99
63554;BME280;49699;48.072;7.800;2022-07-30T01:17:18;99571.59;;;17.57;65.11
63554;BME280;49699;48.072;7.800;2022-07-30T01:19:43;99570.63;;;17.58;65.01
63554;BME280;49699;48.072;7.800;2022-07-30T01:27:16;99570.75;;;17.57;64.96
63554;BME280;49699;48.072;7.800;2022-07-30T01:29:44;99575.63;;;17.61;65.04
63554;BME280;49699;48.072;7.800;2022-07-30T01:32:10;99568.97;;;17.57;65.21
63554;BME280;49699;48.072;7.800;2022-07-30T01:34:36;99568.69;;;17.60;65.26
63554;BME280;49699;48.072;7.800;2022-07-30T01:37:03;99565.09;;;17.61;65.15
63554;BME280;49699;48.072;7.800;2022-07-30T01:39:30;99572.16;;;17.61;65.25
63554;BME280;49699;48.072;7.800;2022-07-30T01:41:57;99565.94;;;17.62;65.22
63554;BME280;49699;48.072;7.800;2022-07-30T01:44:25;99569.41;;;17.62;65.16
63554;BME280;49699;48.072;7.800;2022-07-30T01:46:54;99565.94;;;17.62;65.22
63554;BME280;49699;48.072;7.800;2022-07-30T01:49:22;99564.06;;;17.64;65.01
63554;BME280;49699;48.072;7.800;2022-07-30T01:51:49;99560.31;;;17.66;64.94
63554;BME280;49699;48.072;7.800;2022-07-30T01:54:17;99560.31;;;17.66;64.76
63554;BME280;49699;48.072;7.800;2022-07-30T01:56:44;99562.00;;;17.67;64.90
63554;BME280;49699;48.072;7.800;2022-07-30T01:59:12;99567.97;;;17.69;64.88
63554;BME280;49699;48.072;7.800;2022-07-30T02:01:40;99570.16;;;17.64;65.11
63554;BME280;49699;48.072;7.800;2022-07-30T02:04:06;99567.16;;;17.58;65.17
63554;BME280;49699;48.072;7.800;2022-07-30T02:06:37;99574.50;;;17.54;65.55
63554;BME280;49699;48.072;7.800;2022-07-30T02:09:07;99578.22;;;17.52;65.63
63554;BME280;49699;48.072;7.800;2022-07-30T02:11:40;99575.97;;;17.47;65.45
63554;BME280;49699;48.072;7.800;2022-07-30T02:14:36;99580.41;;;17.47;65.66
63554;BME280;49699;48.072;7.800;2022-07-30T02:17:04;99577.75;;;17.47;66.00
63554;BME280;49699;48.072;7.800;2022-07-30T02:19:33;99585.31;;;17.40;66.14
63554;BME280;49699;48.072;7.800;2022-07-30T02:22:07;99590.06;;;17.25;66.49
63554;BME280;49699;48.072;7.800;2022-07-30T02:24:33;99588.13;;;17.07;67.11
63554;BME280;49699;48.072;7.800;2022-07-30T02:27:05;99588.53;;;16.91;67.52
63554;BME280;49699;48.072;7.800;2022-07-30T02:29:34;99593.38;;;16.75;67.98
63554;BME280;49699;48.072;7.800;2022-07-30T02:32:03;99598.03;;;16.60;68.54
63554;BME280;49699;48.072;7.800;2022-07-30T02:34:35;99593.50;;;16.51;68.80
63554;BME280;49699;48.072;7.800;2022-07-30T02:37:04;99590.28;;;16.47;69.03
63554;BME280;49699;48.072;7.800;2022-07-30T02:39:30;99588.63;;;16.46;68.99
63554;BME280;49699;48.072;7.800;2022-07-30T02:41:58;99593.03;;;16.46;68.86
63554;BME280;49699;48.072;7.800;2022-07-30T02:44:25;99591.25;;;16.46;68.82
63554;BME280;49699;48.072;7.800;2022-07-30T02:46:55;99596.13;;;16.51;68.86
63554;BME280;49699;48.072;7.800;2022-07-30T02:49:45;99600.19;;;16.55;68.78
63554;BME280;49699;48.072;7.800;2022-07-30T02:52:12;99601.63;;;16.59;68.52
63554;BME280;49699;48.072;7.800;2022-07-30T02:54:41;99606.41;;;16.65;68.45
63554;BME280;49699;48.072;7.800;2022-07-30T02:57:07;99605.78;;;16.73;68.09
63554;BME280;49699;48.072;7.800;2022-07-30T02:59:35;99609.72;;;16.78;67.99
63554;BME280;49699;48.072;7.800;2022-07-30T03:02:02;99608.19;;;16.76;67.78
63554;BME280;49699;48.072;7.800;2022-07-30T03:04:30;99606.50;;;16.75;67.84
63554;BME280;49699;48.072;7.800;2022-07-30T03:06:58;99607.47;;;16.74;67.81
63554;BME280;49699;48.072;7.800;2022-07-30T03:09:24;99609.97;;;16.75;67.73
63554;BME280;49699;48.072;7.800;2022-07-30T03:11:51;99617.00;;;16.75;67.86
63554;BME280;49699;48.072;7.800;2022-07-30T03:14:18;99621.91;;;16.79;68.02
63554;BME280;49699;48.072;7.800;2022-07-30T03:16:46;99624.31;;;16.82;67.64
63554;BME280;49699;48.072;7.800;2022-07-30T03:19:15;99618.22;;;16.82;67.57
63554;BME280;49699;48.072;7.800;2022-07-30T03:21:44;99613.66;;;16.84;67.82
63554;BME280;49699;48.072;7.800;2022-07-30T03:24:11;99619.59;;;16.86;67.51
63554;BME280;49699;48.072;7.800;2022-07-30T03:26:38;99620.31;;;16.88;67.34
63554;BME280;49699;48.072;7.800;2022-07-30T03:29:05;99620.44;;;16.86;67.42
63554;BME280;49699;48.072;7.800;2022-07-30T03:31:31;99617.81;;;16.86;67.48
63554;BME280;49699;48.072;7.800;2022-07-30T03:33:57;99627.13;;;16.90;67.54
63554;BME280;49699;48.072;7.800;2022-07-30T03:36:24;99628.09;;;16.89;67.24
63554;BME280;49699;48.072;7.800;2022-07-30T03:38:51;99629.16;;;16.87;67.30
63554;BME280;49699;48.072;7.800;2022-07-30T03:41:17;99629.69;;;16.81;67.51
63554;BME280;49699;48.072;7.800;2022-07-30T03:43:45;99628.13;;;16.78;67.64
63554;BME280;49699;48.072;7.800;2022-07-30T03:46:14;99627.28;;;16.78;67.61
63554;BME280;49699;48.072;7.800;2022-07-30T03:48:44;99629.09;;;16.77;67.68
63554;BME280;49699;48.072;7.800;2022-07-30T03:51:10;99631.00;;;16.75;67.64
63554;BME280;49699;48.072;7.800;2022-07-30T03:53:40;99634.34;;;16.77;67.62
63554;BME280;49699;48.072;7.800;2022-07-30T03:56:32;99636.72;;;16.80;67.38
63554;BME280;49699;48.072;7.800;2022-07-30T03:59:05;99634.69;;;16.84;67.24
63554;BME280;49699;48.072;7.800;2022-07-30T04:01:32;99633.59;;;16.86;67.25
63554;BME280;49699;48.072;7.800;2022-07-30T04:04:07;99630.84;;;16.88;66.81
63554;BME280;49699;48.072;7.800;2022-07-30T04:06:34;99637.78;;;16.89;66.91
63554;BME280;49699;48.072;7.800;2022-07-30T04:09:10;99641.47;;;16.86;67.15
63554;BME280;49699;48.072;7.800;2022-07-30T04:11:37;99651.53;;;16.81;67.15
63554;BME280;49699;48.072;7.800;2022-07-30T04:14:04;99652.03;;;16.75;67.68
63554;BME280;49699;48.072;7.800;2022-07-30T04:16:36;99650.81;;;16.68;67.85
63554;BME280;49699;48.072;7.800;2022-07-30T04:19:11;99649.41;;;16.64;67.79
63554;BME280;49699;48.072;7.800;2022-07-30T04:21:39;99645.00;;;16.64;67.83
63554;BME280;49699;48.072;7.800;2022-07-30T04:24:08;99646.69;;;16.65;67.60
63554;BME280;49699;48.072;7.800;2022-07-30T04:26:36;99638.78;;;16.65;67.60
63554;BME280;49699;48.072;7.800;2022-07-30T04:29:05;99642.94;;;16.68;67.61
63554;BME280;49699;48.072;7.800;2022-07-30T04:31:31;99644.63;;;16.69;67.31
63554;BME280;49699;48.072;7.800;2022-07-30T04:34:12;99652.38;;;16.71;67.32
63554;BME280;49699;48.072;7.800;2022-07-30T04:36:38;99652.50;;;16.69;67.19
63554;BME280;49699;48.072;7.800;2022-07-30T04:39:04;99658.81;;;16.66;67.39
63554;BME280;49699;48.072;7.800;2022-07-30T04:41:30;99666.88;;;16.65;67.51
63554;BME280;49699;48.072;7.800;2022-07-30T04:44:22;99672.81;;;16.67;67.41
63554;BME280;49699;48.072;7.800;2022-07-30T04:47:07;99669.94;;;16.70;67.28
63554;BME280;49699;48.072;7.800;2022-07-30T04:49:38;99668.03;;;16.72;67.12
63554;BME280;49699;48.072;7.800;2022-07-30T04:52:07;99677.59;;;16.73;67.13
63554;BME280;49699;48.072;7.800;2022-07-30T04:54:43;99672.94;;;16.77;67.15
63554;BME280;49699;48.072;7.800;2022-07-30T04:57:10;99675.44;;;16.78;66.92
63554;BME280;49699;48.072;7.800;2022-07-30T04:59:37;99673.75;;;16.77;66.89
63554;BME280;49699;48.072;7.800;2022-07-30T05:02:05;99684.28;;;16.77;66.91
63554;BME280;49699;48.072;7.800;2022-07-30T05:04:33;99679.84;;;16.78;67.04
63554;BME280;49699;48.072;7.800;2022-07-30T05:07:01;99683.19;;;16.80;67.14
63554;BME280;49699;48.072;7.800;2022-07-30T05:09:27;99681.19;;;16.83;66.98
63554;BME280;49699;48.072;7.800;2022-07-30T05:11:54;99678.28;;;16.86;67.03
63554;BME280;49699;48.072;7.800;2022-07-30T05:14:21;99679.81;;;16.89;66.83
63554;BME280;49699;48.072;7.800;2022-07-30T05:16:47;99675.75;;;16.96;66.49
63554;BME280;49699;48.072;7.800;2022-07-30T05:19:13;99676.09;;;17.02;66.16
63554;BME280;49699;48.072;7.800;2022-07-30T05:21:39;99677.41;;;17.08;66.06
63554;BME280;49699;48.072;7.800;2022-07-30T05:24:05;99674.16;;;17.16;65.95
63554;BME280;49699;48.072;7.800;2022-07-30T05:26:39;99681.28;;;17.25;65.58
63554;BME280;49699;48.072;7.800;2022-07-30T05:29:07;99678.88;;;17.33;65.31
63554;BME280;49699;48.072;7.800;2022-07-30T05:31:46;99683.50;;;17.41;65.13
63554;BME280;49699;48.072;7.800;2022-07-30T05:34:12;99685.66;;;17.47;65.11
63554;BME280;49699;48.072;7.800;2022-07-30T05:36:41;99683.47;;;17.52;65.09
63554;BME280;49699;48.072;7.800;2022-07-30T05:39:10;99686.28;;;17.60;64.76
63554;BME280;49699;48.072;7.800;2022-07-30T05:41:58;99685.00;;;17.65;64.70
63554;BME280;49699;48.072;7.800;2022-07-30T05:44:50;99688.22;;;17.69;64.63
63554;BME280;49699;48.072;7.800;2022-07-30T05:47:15;99684.38;;;17.73;64.69
63554;BME280;49699;48.072;7.800;2022-07-30T05:49:45;99690.78;;;17.80;64.55
63554;BME280;49699;48.072;7.800;2022-07-30T05:52:11;99693.75;;;17.87;64.18
63554;BME280;49699;48.072;7.800;2022-07-30T05:54:37;99689.63;;;17.94;64.24
63554;BME280;49699;48.072;7.800;2022-07-30T05:57:37;99690.41;;;18.06;64.06
63554;BME280;49699;48.072;7.800;2022-07-30T06:00:04;99687.44;;;18.20;63.64
63554;BME280;49699;48.072;7.800;2022-07-30T06:02:51;99687.91;;;18.34;63.36
63554;BME280;49699;48.072;7.800;2022-07-30T06:05:26;99685.75;;;18.49;62.79
63554;BME280;49699;48.072;7.800;2022-07-30T06:07:55;99687.25;;;18.63;62.37
63554;BME280;49699;48.072;7.800;2022-07-30T06:10:22;99695.50;;;18.79;61.77
63554;BME280;49699;48.072;7.800;2022-07-30T06:12:47;99693.19;;;18.95;61.37
63554;BME280;49699;48.072;7.800;2022-07-30T06:15:14;99695.16;;;19.13;60.70
63554;BME280;49699;48.072;7.800;2022-07-30T06:17:42;99692.69;;;19.30;60.17
63554;BME280;49699;48.072;7.800;2022-07-30T06:20:15;99696.31;;;19.49;59.61
63554;BME280;49699;48.072;7.800;2022-07-30T06:22:55;99703.69;;;19.64;59.31
63554;BME280;49699;48.072;7.800;2022-07-30T06:25:28;99697.00;;;19.80;58.89
63554;BME280;49699;48.072;7.800;2022-07-30T06:27:54;99702.69;;;19.94;58.56
63554;BME280;49699;48.072;7.800;2022-07-30T06:30:19;99698.63;;;20.09;58.02
63554;BME280;49699;48.072;7.800;2022-07-30T06:32:45;99700.66;;;20.25;57.59
63554;BME280;49699;48.072;7.800;2022-07-30T06:35:11;99703.75;;;20.40;57.15
63554;BME280;49699;48.072;7.800;2022-07-30T06:37:37;99700.22;;;20.49;56.84
63554;BME280;49699;48.072;7.800;2022-07-30T06:40:03;99705.84;;;20.64;56.35
63554;BME280;49699;48.072;7.800;2022-07-30T06:42:50;99707.88;;;20.79;55.96
63554;BME280;49699;48.072;7.800;2022-07-30T06:45:47;99703.91;;;20.93;55.45
63554;BME280;49699;48.072;7.800;2022-07-30T06:48:18;99713.31;;;21.05;55.21
63554;BME280;49699;48.072;7.800;2022-07-30T06:50:43;99710.19;;;21.20;54.68
63554;BME280;49699;48.072;7.800;2022-07-30T06:53:09;99709.50;;;21.35;54.26
63554;BME280;49699;48.072;7.800;2022-07-30T06:56:06;99714.13;;;21.51;53.74
63554;BME280;49699;48.072;7.800;2022-07-30T06:58:41;99711.81;;;21.66;53.15
63554;BME280;49699;48.072;7.800;2022-07-30T07:01:26;99711.25;;;21.80;52.73
63554;BME280;49699;48.072;7.800;2022-07-30T07:03:54;99721.00;;;21.97;52.30
63554;BME280;49699;48.072;7.800;2022-07-30T07:06:19;99718.94;;;22.09;51.90
63554;BME280;49699;48.072;7.800;2022-07-30T07:08:46;99717.34;;;22.16;51.59
63554;BME280;49699;48.072;7.800;2022-07-30T07:11:14;99719.75;;;22.27;51.35
63554;BME280;49699;48.072;7.800;2022-07-30T07:13:48;99714.69;;;22.42;50.75
63554;BME280;49699;48.072;7.800;2022-07-30T07:16:22;99718.38;;;22.49;50.28
63554;BME280;49699;48.072;7.800;2022-07-30T07:18:53;99719.91;;;22.60;49.76
63554;BME280;49699;48.072;7.800;2022-07-30T07:21:19;99714.97;;;22.65;49.63
63554;BME280;49699;48.072;7.800;2022-07-30T07:23:45;99720.50;;;22.71;49.57
63554;BME280;49699;48.072;7.800;2022-07-30T07:26:47;99722.56;;;22.85;49.31
63554;BME280;49699;48.072;7.800;2022-07-30T07:29:13;99713.47;;;22.96;48.77
63554;BME280;49699;48.072;7.800;2022-07-30T07:31:38;99712.84;;;23.02;48.68
63554;BME280;49699;48.072;7.800;2022-07-30T07:34:05;99713.19;;;23.15;48.33
63554;BME280;49699;48.072;7.800;2022-07-30T07:36:31;99716.25;;;23.29;48.25
63554;BME280;49699;48.072;7.800;2022-07-30T07:38:57;99710.25;;;23.35;47.92
63554;BME280;49699;48.072;7.800;2022-07-30T07:41:22;99714.78;;;23.42;47.55
63554;BME280;49699;48.072;7.800;2022-07-30T07:43:48;99711.16;;;23.60;47.04
63554;BME280;49699;48.072;7.800;2022-07-30T07:46:22;99712.34;;;23.81;46.56
63554;BME280;49699;48.072;7.800;2022-07-30T07:48:47;99705.34;;;23.97;46.03
63554;BME280;49699;48.072;7.800;2022-07-30T07:51:24;99708.81;;;24.05;45.85
63554;BME280;49699;48.072;7.800;2022-07-30T07:53:49;99706.84;;;24.15;45.59
63554;BME280;49699;48.072;7.800;2022-07-30T07:56:15;99703.66;;;24.36;45.06
63554;BME280;49699;48.072;7.800;2022-07-30T07:58:41;99712.22;;;24.54;44.52
63554;BME280;49699;48.072;7.800;2022-07-30T08:01:09;99711.22;;;24.72;44.32
63554;BME280;49699;48.072;7.800;2022-07-30T08:03:53;99709.75;;;24.92;43.95
63554;BME280;49699;48.072;7.800;2022-07-30T08:06:53;99705.69;;;25.12;42.97
63554;BME280;49699;48.072;7.800;2022-07-30T08:09:37;99709.50;;;25.18;42.77
63554;BME280;49699;48.072;7.800;2022-07-30T08:12:09;99714.97;;;25.24;42.70
63554;BME280;49699;48.072;7.800;2022-07-30T08:14:53;99711.91;;;25.36;42.36
63554;BME280;49699;48.072;7.800;2022-07-30T08:17:44;99703.88;;;25.44;42.22
63554;BME280;49699;48.072;7.800;2022-07-30T08:20:15;99702.09;;;25.59;42.03
63554;BME280;49699;48.072;7.800;2022-07-30T08:22:41;99704.00;;;25.73;41.71
63554;BME280;49699;48.072;7.800;2022-07-30T08:25:07;99704.69;;;25.90;41.55
63554;BME280;49699;48.072;7.800;2022-07-30T08:27:33;99699.19;;;26.06;40.76
63554;BME280;49699;48.072;7.800;2022-07-30T08:30:03;99704.56;;;26.21;40.42
63554;BME280;49699;48.072;7.800;2022-07-30T08:32:29;99712.16;;;26.32;40.36
63554;BME280;49699;48.072;7.800;2022-07-30T08:34:55;99709.22;;;26.42;40.02
63554;BME280;49699;48.072;7.800;2022-07-30T08:37:20;99703.03;;;26.56;39.83
63554;BME280;49699;48.072;7.800;2022-07-30T08:39:46;99702.59;;;26.67;39.59
63554;BME280;49699;48.072;7.800;2022-07-30T08:42:12;99705.69;;;26.85;39.17
63554;BME280;49699;48.072;7.800;2022-07-30T08:44:39;99701.44;;;27.06;38.89
63554;BME280;49699;48.072;7.800;2022-07-30T08:47:06;99698.28;;;27.17;38.29
63554;BME280;49699;48.072;7.800;2022-07-30T08:49:53;99690.78;;;27.27;38.19
63554;BME280;49699;48.072;7.800;2022-07-30T08:52:24;99690.47;;;27.37;37.93
63554;BME280;49699;48.072;7.800;2022-07-30T08:54:59;99696.13;;;27.48;37.94
63554;BME280;49699;48.072;7.800;2022-07-30T08:57:27;99689.47;;;27.59;37.34
63554;BME280;49699;48.072;7.800;2022-07-30T08:59:55;99688.16;;;27.70;36.96
63554;BME280;49699;48.072;7.800;2022-07-30T09:02:21;99694.81;;;27.80;36.92
63554;BME280;49699;48.072;7.800;2022-07-30T09:04:57;99697.84;;;27.98;35.99
63554;BME280;49699;48.072;7.800;2022-07-30T09:07:23;99695.03;;;28.07;35.44
63554;BME280;49699;48.072;7.800;2022-07-30T09:09:49;99689.59;;;28.21;35.12
63554;BME280;49699;48.072;7.800;2022-07-30T09:12:34;99688.72;;;28.42;34.75
63554;BME280;49699;48.072;7.800;2022-07-30T09:15:17;99688.53;;;28.50;34.01
63554;BME280;49699;48.072;7.800;2022-07-30T09:17:52;99695.63;;;28.64;33.53
63554;BME280;49699;48.072;7.800;2022-07-30T09:20:22;99696.09;;;28.75;33.50
63554;BME280;49699;48.072;7.800;2022-07-30T09:22:51;99692.47;;;28.89;33.12
63554;BME280;49699;48.072;7.800;2022-07-30T09:25:40;99695.84;;;29.11;32.42
63554;BME280;49699;48.072;7.800;2022-07-30T09:28:29;99695.25;;;29.22;31.98
63554;BME280;49699;48.072;7.800;2022-07-30T09:31:16;99697.16;;;29.34;31.49
63554;BME280;49699;48.072;7.800;2022-07-30T09:34:00;99699.88;;;29.48;30.70
63554;BME280;49699;48.072;7.800;2022-07-30T09:37:16;99698.25;;;29.66;30.02
63554;BME280;49699;48.072;7.800;2022-07-30T09:40:10;99694.34;;;29.89;29.00
63554;BME280;49699;48.072;7.800;2022-07-30T09:43:09;99688.78;;;30.03;28.61
63554;BME280;49699;48.072;7.800;2022-07-30T09:45:49;99677.00;;;30.11;28.31
63554;BME280;49699;48.072;7.800;2022-07-30T09:48:22;99685.47;;;30.21;28.36
63554;BME280;49699;48.072;7.800;2022-07-30T09:50:49;99693.28;;;30.36;28.10
63554;BME280;49699;48.072;7.800;2022-07-30T09:53:15;99678.81;;;30.44;28.01
63554;BME280;49699;48.072;7.800;2022-07-30T09:55:41;99672.78;;;30.48;27.81
63554;BME280;49699;48.072;7.800;2022-07-30T09:58:07;99678.38;;;30.53;27.86
63554;BME280;49699;48.072;7.800;2022-07-30T10:00:34;99679.59;;;30.64;27.64
63554;BME280;49699;48.072;7.800;2022-07-30T10:03:42;99685.72;;;30.84;27.43
63554;BME280;49699;48.072;7.800;2022-07-30T10:06:34;99676.56;;;30.98;27.31
63554;BME280;49699;48.072;7.800;2022-07-30T10:09:05;99683.75;;;31.04;27.05
63554;BME280;49699;48.072;7.800;2022-07-30T10:11:30;99679.47;;;30.97;27.16
63554;BME280;49699;48.072;7.800;2022-07-30T10:13:58;99674.88;;;31.04;26.91
63554;BME280;49699;48.072;7.800;2022-07-30T10:16:25;99675.69;;;31.11;27.01
63554;BME280;49699;48.072;7.800;2022-07-30T10:18:52;99672.16;;;31.17;26.65
63554;BME280;49699;48.072;7.800;2022-07-30T10:21:38;99678.50;;;31.29;26.74
63554;BME280;49699;48.072;7.800;2022-07-30T10:24:23;99669.28;;;31.44;26.44
63554;BME280;49699;48.072;7.800;2022-07-30T10:27:08;99670.06;;;31.51;26.60
63554;BME280;49699;48.072;7.800;2022-07-30T10:29:43;99673.09;;;31.29;26.89
63554;BME280;49699;48.072;7.800;2022-07-30T10:32:09;99674.47;;;31.00;27.34
63554;BME280;49699;48.072;7.800;2022-07-30T10:34:36;99672.78;;;31.06;27.42
63554;BME280;49699;48.072;7.800;2022-07-30T10:37:03;99672.78;;;31.06;26.89
63554;BME280;49699;48.072;7.800;2022-07-30T10:39:36;99665.22;;;30.90;27.34
63554;BME280;49699;48.072;7.800;2022-07-30T10:42:40;99659.81;;;30.96;27.28
63554;BME280;49699;48.072;7.800;2022-07-30T10:45:21;99655.41;;;31.15;26.59
63554;BME280;49699;48.072;7.800;2022-07-30T10:47:52;99651.59;;;31.29;26.36
63554;BME280;49699;48.072;7.800;2022-07-30T10:50:20;99654.38;;;31.48;26.37
63554;BME280;49699;48.072;7.800;2022-07-30T10:52:57;99648.53;;;31.82;25.85
63554;BME280;49699;48.072;7.800;2022-07-30T10:55:23;99650.13;;;32.08;25.54
63554;BME280;49699;48.072;7.800;2022-07-30T10:58:15;99647.69;;;32.43;25.55
63554;BME280;49699;48.072;7.800;2022-07-30T11:03:26;99643.13;;;32.43;24.74
63554;BME280;49699;48.072;7.800;2022-07-30T11:08:44;99640.75;;;32.35;24.87
63554;BME280;49699;48.072;7.800;2022-07-30T11:13:49;99640.50;;;32.19;25.56
63554;BME280;49699;48.072;7.800;2022-07-30T11:16:16;99649.22;;;32.39;25.32
63554;BME280;49699;48.072;7.800;2022-07-30T11:19:09;99646.75;;;32.56;25.05
63554;BME280;49699;48.072;7.800;2022-07-30T11:21:45;99639.59;;;32.61;25.11
63554;BME280;49699;48.072;7.800;2022-07-30T11:27:07;99638.66;;;32.74;25.00
63554;BME280;49699;48.072;7.800;2022-07-30T11:29:39;99633.91;;;32.88;24.95
63554;BME280;49699;48.072;7.800;2022-07-30T11:34:51;99629.44;;;33.11;24.54
63554;BME280;49699;48.072;7.800;2022-07-30T11:37:16;99648.44;;;32.87;24.78
63554;BME280;49699;48.072;7.800;2022-07-30T11:42:35;99630.97;;;32.78;24.80
63554;BME280;49699;48.072;7.800;2022-07-30T11:47:55;99620.41;;;32.58;24.60
63554;BME280;49699;48.072;7.800;2022-07-30T11:50:24;99629.31;;;32.22;25.01
63554;BME280;49699;48.072;7.800;2022-07-30T11:57:55;99637.81;;;31.75;25.70
63554;BME280;49699;48.072;7.800;2022-07-30T12:00:21;99632.28;;;31.70;26.14
63554;BME280;49699;48.072;7.800;2022-07-30T12:02:48;99633.38;;;31.88;25.99
63554;BME280;49699;48.072;7.800;2022-07-30T12:05:15;99626.72;;;32.08;25.55
63554;BME280;49699;48.072;7.800;2022-07-30T12:07:41;99628.56;;;32.08;25.44
63554;BME280;49699;48.072;7.800;2022-07-30T12:10:13;99635.06;;;31.82;25.68
63554;BME280;49699;48.072;7.800;2022-07-30T12:12:39;99625.38;;;31.50;26.06
63554;BME280;49699;48.072;7.800;2022-07-30T12:15:05;99623.16;;;31.15;26.73
63554;BME280;49699;48.072;7.800;2022-07-30T12:17:41;99634.28;;;30.81;27.13
63554;BME280;49699;48.072;7.800;2022-07-30T12:20:17;99631.69;;;30.61;27.34
63554;BME280;49699;48.072;7.800;2022-07-30T12:22:44;99625.22;;;30.75;27.23
63554;BME280;49699;48.072;7.800;2022-07-30T12:25:10;99617.31;;;31.18;26.74
63554;BME280;49699;48.072;7.800;2022-07-30T12:27:36;99623.84;;;31.60;26.13
63554;BME280;49699;48.072;7.800;2022-07-30T12:30:03;99622.44;;;31.83;26.31
63554;BME280;49699;48.072;7.800;2022-07-30T12:32:29;99618.56;;;31.72;26.14
63554;BME280;49699;48.072;7.800;2022-07-30T12:34:56;99627.34;;;31.61;26.00
63554;BME280;49699;48.072;7.800;2022-07-30T12:37:22;99621.69;;;31.44;26.65
63554;BME280;49699;48.072;7.800;2022-07-30T12:39:48;99615.69;;;31.17;26.87
63554;BME280;49699;48.072;7.800;2022-07-30T12:42:20;99618.72;;;30.89;27.32
63554;BME280;49699;48.072;7.800;2022-07-30T12:44:46;99607.88;;;30.64;27.44
63554;BME280;49699;48.072;7.800;2022-07-30T12:47:29;99614.56;;;30.42;27.64
63554;BME280;49699;48.072;7.800;2022-07-30T12:49:56;99607.00;;;30.19;27.99
63554;BME280;49699;48.072;7.800;2022-07-30T12:55:11;99608.69;;;29.81;28.60
63554;BME280;49699;48.072;7.800;2022-07-30T12:58:03;99605.81;;;29.69;28.88
63554;BME280;49699;48.072;7.800;2022-07-30T13:00:31;99609.72;;;29.60;29.22
63554;BME280;49699;48.072;7.800;2022-07-30T13:02:57;99602.91;;;29.57;29.16
63554;BME280;49699;48.072;7.800;2022-07-30T13:05:46;99602.06;;;29.96;28.67
63554;BME280;49699;48.072;7.800;2022-07-30T13:08:12;99604.00;;;30.47;28.05
63554;BME280;49699;48.072;7.800;2022-07-30T13:10:52;99595.25;;;31.03;27.34
63554;BME280;49699;48.072;7.800;2022-07-30T13:13:18;99598.31;;;31.45;26.72
63554;BME280;49699;48.072;7.800;2022-07-30T13:15:43;99594.31;;;31.79;26.15
63554;BME280;49699;48.072;7.800;2022-07-30T13:18:09;99593.28;;;31.98;25.74
63554;BME280;49699;48.072;7.800;2022-07-30T13:20:34;99598.44;;;31.99;25.60
63554;BME280;49699;48.072;7.800;2022-07-30T13:22:59;99601.00;;;32.13;25.72
63554;BME280;49699;48.072;7.800;2022-07-30T13:25:25;99591.28;;;32.12;25.57
63554;BME280;49699;48.072;7.800;2022-07-30T13:27:50;99592.78;;;32.26;25.34
63554;BME280;49699;48.072;7.800;2022-07-30T13:30:16;99598.50;;;32.36;25.24
63554;BME280;49699;48.072;7.800;2022-07-30T13:32:41;99595.47;;;32.44;25.45
63554;BME280;49699;48.072;7.800;2022-07-30T13:35:07;99597.84;;;32.70;25.31
63554;BME280;49699;48.072;7.800;2022-07-30T13:37:32;99594.09;;;33.01;24.83
63554;BME280;49699;48.072;7.800;2022-07-30T13:39:58;99585.66;;;33.28;24.25
63554;BME280;49699;48.072;7.800;2022-07-30T13:42:23;99586.47;;;33.40;23.94
63554;BME280;49699;48.072;7.800;2022-07-30T13:44:48;99581.44;;;33.43;23.96
63554;BME280;49699;48.072;7.800;2022-07-30T13:47:15;99580.84;;;33.41;23.97
63554;BME280;49699;48.072;7.800;2022-07-30T13:49:40;99579.66;;;33.37;23.89
63554;BME280;49699;48.072;7.800;2022-07-30T13:52:09;99578.75;;;33.32;23.85